Time;durP1;ratioP1;P1;durP2;ratioP2;P2;SDS_P1;SDS_P2;PMS_P1;PMS_P2;Temp;Humidity;BMP_temperature;BMP_pressure;BME280_temperature;BME280_humidity;BME280_pressure;Samples;Min_cycle;Max_cycle;Signal;HPM_P1;HPM_P2
2023/11/05 06:08:59;;;;;;;1.90;1.15;;;10.30;99.90;;;;;;5014108;28;20040;-76
2023/11/05 06:11:47;;;;;;;1.88;1.33;;;10.30;99.90;;;;;;5056731;28;20055;-75
2023/11/05 06:14:33;;;;;;;1.90;1.20;;;10.30;99.90;;;;;;5058336;28;20104;-75
2023/11/05 06:17:19;;;;;;;2.50;1.27;;;10.30;99.90;;;;;;5058973;28;20039;-77
2023/11/05 06:20:06;;;;;;;2.88;1.20;;;10.30;99.90;;;;;;5068077;28;20080;-75
2023/11/05 06:22:53;;;;;;;2.25;0.95;;;10.30;99.90;;;;;;5071380;28;20120;-76
2023/11/05 06:25:39;;;;;;;2.15;1.38;;;10.30;99.90;;;;;;5067154;28;20571;-78
2023/11/05 06:28:25;;;;;;;2.60;1.35;;;10.30;99.90;;;;;;5060670;28;20033;-76
2023/11/05 06:31:11;;;;;;;1.88;1.33;;;10.30;99.90;;;;;;5051152;28;20052;-80
2023/11/05 06:33:57;;;;;;;1.98;1.40;;;10.30;99.90;;;;;;5051471;28;20045;-80
2023/11/05 06:37:00;;;;;;;2.83;1.25;;;10.40;99.90;;;;;;5064196;28;20051;-80
2023/11/05 06:39:46;;;;;;;2.55;1.23;;;10.40;99.90;;;;;;5071696;28;20083;-79
2023/11/05 06:42:32;;;;;;;1.55;0.95;;;10.40;99.90;;;;;;5071382;28;20052;-80
2023/11/05 06:45:18;;;;;;;2.22;1.38;;;10.40;99.90;;;;;;5057436;28;20048;-80
2023/11/05 06:48:04;;;;;;;2.40;1.27;;;10.40;99.90;;;;;;5069562;28;20401;-78
2023/11/05 06:50:50;;;;;;;1.70;1.58;;;10.50;99.90;;;;;;5051352;28;20417;-79
2023/11/05 06:53:36;;;;;;;2.00;1.15;;;10.60;99.90;;;;;;5051127;28;20041;-80
2023/11/05 06:56:22;;;;;;;1.35;1.20;;;10.60;99.90;;;;;;5053287;28;20132;-80
2023/11/05 06:59:08;;;;;;;2.20;1.40;;;10.70;99.90;;;;;;5070007;28;20413;-76
2023/11/05 07:01:54;;;;;;;1.70;1.20;;;10.80;99.90;;;;;;5052919;28;20571;-72
2023/11/05 07:04:40;;;;;;;2.15;1.25;;;10.80;99.90;;;;;;5069606;28;20048;-74
2023/11/05 07:07:26;;;;;;;1.30;1.10;;;10.90;99.90;;;;;;5051657;28;20063;-73
2023/11/05 07:10:12;;;;;;;2.83;1.60;;;11.00;99.90;;;;;;5058957;28;20057;-74
2023/11/05 07:12:58;;;;;;;2.00;1.45;;;11.10;99.90;;;;;;5051214;28;20033;-74
2023/11/05 07:15:44;;;;;;;3.35;1.73;;;11.10;99.90;;;;;;5069260;28;20169;-74
2023/11/05 07:18:30;;;;;;;2.50;1.50;;;11.20;99.90;;;;;;5064601;28;20052;-74
2023/11/05 07:21:16;;;;;;;3.70;1.65;;;11.20;99.90;;;;;;5061071;28;20409;-74
2023/11/05 07:24:02;;;;;;;2.00;1.80;;;11.40;99.90;;;;;;5059899;28;20106;-74
2023/11/05 07:26:48;;;;;;;2.75;1.52;;;11.40;99.90;;;;;;5062111;28;20047;-74
2023/11/05 07:29:34;;;;;;;2.80;1.52;;;11.40;99.90;;;;;;5050629;28;20045;-75
2023/11/05 07:32:20;;;;;;;2.90;1.77;;;11.50;99.90;;;;;;5052028;28;20049;-75
2023/11/05 07:35:07;;;;;;;2.22;1.65;;;11.50;99.90;;;;;;5060968;28;20036;-75
2023/11/05 07:37:56;;;;;;;2.40;1.60;;;11.60;99.90;;;;;;5048841;28;20652;-75
2023/11/05 07:40:42;;;;;;;3.75;1.40;;;11.60;99.90;;;;;;5038083;28;20041;-76
2023/11/05 07:43:28;;;;;;;3.25;1.70;;;11.60;99.90;;;;;;5051434;28;20037;-74
2023/11/05 07:46:14;;;;;;;1.77;1.40;;;11.60;99.90;;;;;;5051505;28;20033;-74
2023/11/05 07:49:00;;;;;;;2.22;1.60;;;11.70;99.90;;;;;;5054730;28;20048;-75
2023/11/05 07:51:46;;;;;;;2.85;1.80;;;11.70;99.90;;;;;;5068447;28;20072;-74
2023/11/05 07:54:33;;;;;;;4.40;1.83;;;11.80;99.90;;;;;;5071575;28;20102;-76
2023/11/05 07:57:18;;;;;;;2.83;1.48;;;11.80;99.90;;;;;;5080507;28;20036;-75
2023/11/05 08:00:07;;;;;;;2.58;1.25;;;11.80;99.90;;;;;;5061834;28;20041;-78
2023/11/05 08:02:53;;;;;;;4.97;1.33;;;11.90;99.90;;;;;;5052471;28;20053;-75
2023/11/05 08:05:39;;;;;;;1.65;1.35;;;11.90;99.90;;;;;;5049141;28;20052;-73
2023/11/05 08:08:27;;;;;;;2.22;1.52;;;11.90;99.90;;;;;;5059455;28;20040;-71
2023/11/05 08:11:13;;;;;;;2.35;1.50;;;12.00;99.90;;;;;;5049729;28;20044;-73
2023/11/05 08:14:00;;;;;;;3.42;1.48;;;12.10;99.90;;;;;;5049844;28;20045;-71
2023/11/05 08:16:46;;;;;;;2.05;1.35;;;12.10;99.90;;;;;;5048169;28;20049;-70
2023/11/05 08:19:32;;;;;;;2.55;1.60;;;12.10;99.90;;;;;;5061420;28;20079;-70
2023/11/05 08:22:18;;;;;;;2.47;1.40;;;12.20;99.90;;;;;;5070400;28;20040;-71
2023/11/05 08:25:04;;;;;;;2.03;1.55;;;12.20;99.90;;;;;;5062626;28;20052;-71
2023/11/05 08:27:50;;;;;;;2.22;1.50;;;12.20;99.90;;;;;;5069425;28;20043;-73
2023/11/05 08:30:36;;;;;;;2.10;1.50;;;12.30;99.90;;;;;;5064427;28;20052;-69
2023/11/05 08:33:22;;;;;;;2.30;1.70;;;12.30;99.90;;;;;;5058895;28;20079;-70
2023/11/05 08:36:09;;;;;;;2.05;1.58;;;12.30;99.90;;;;;;5063365;28;20132;-71
2023/11/05 08:38:55;;;;;;;2.10;1.35;;;12.30;99.90;;;;;;5067261;28;20051;-73
2023/11/05 08:41:44;;;;;;;3.45;2.08;;;12.30;99.90;;;;;;5056461;28;20075;-72
2023/11/05 08:44:30;;;;;;;2.72;1.50;;;12.30;99.90;;;;;;5068341;28;20063;-71
2023/11/05 08:47:16;;;;;;;2.95;1.60;;;12.40;99.90;;;;;;5061913;28;20040;-72
2023/11/05 08:50:07;;;;;;;10.73;1.90;;;12.40;99.90;;;;;;5055573;28;20041;-72
2023/11/05 08:52:53;;;;;;;2.45;1.63;;;12.40;99.90;;;;;;5051715;28;20552;-73
2023/11/05 08:55:39;;;;;;;2.83;2.00;;;12.40;99.90;;;;;;5059285;28;20037;-71
2023/11/05 08:58:25;;;;;;;2.75;1.70;;;12.40;99.90;;;;;;5049601;28;20478;-71
2023/11/05 09:01:12;;;;;;;3.05;1.50;;;12.40;99.90;;;;;;5048252;28;20048;-71
2023/11/05 09:03:59;;;;;;;2.55;1.70;;;12.40;99.90;;;;;;5055078;28;20081;-71
2023/11/05 09:06:45;;;;;;;3.50;1.90;;;12.40;99.90;;;;;;5059513;28;20102;-71
2023/11/05 09:09:30;;;;;;;1.90;1.50;;;12.40;99.90;;;;;;5052086;28;20127;-71
2023/11/05 09:12:16;;;;;;;2.60;1.95;;;12.50;99.90;;;;;;5051979;28;20045;-71
2023/11/05 09:15:03;;;;;;;2.30;1.50;;;12.40;99.90;;;;;;5053110;28;20189;-71
2023/11/05 09:17:49;;;;;;;2.70;1.75;;;12.40;99.90;;;;;;5052417;28;20455;-70
2023/11/05 09:20:35;;;;;;;2.42;1.90;;;12.40;99.90;;;;;;5055183;28;20509;-71
2023/11/05 09:23:21;;;;;;;2.63;1.58;;;12.50;99.90;;;;;;5066999;28;20041;-72
2023/11/05 09:26:08;;;;;;;3.20;2.03;;;12.50;99.90;;;;;;5056603;28;20046;-70
2023/11/05 09:28:54;;;;;;;3.10;1.70;;;12.50;99.90;;;;;;5072693;28;20081;-72
2023/11/05 09:31:42;;;;;;;4.63;1.98;;;12.50;99.90;;;;;;5055944;28;20037;-71
2023/11/05 09:34:28;;;;;;;2.97;1.90;;;12.50;99.90;;;;;;5054061;28;20095;-70
2023/11/05 09:37:14;;;;;;;3.97;2.00;;;12.50;99.90;;;;;;5051639;28;20134;-71
2023/11/05 09:40:00;;;;;;;3.15;2.17;;;12.50;99.90;;;;;;5052639;28;20029;-70
2023/11/05 09:42:58;;;;;;;3.63;1.95;;;12.60;99.90;;;;;;5051219;28;20537;-70
2023/11/05 09:45:49;;;;;;;2.63;1.90;;;12.60;99.90;;;;;;5054936;28;20049;-70
2023/11/05 09:48:35;;;;;;;6.75;2.35;;;12.70;99.90;;;;;;5051729;28;20039;-71
2023/11/05 09:51:21;;;;;;;2.55;1.70;;;12.60;99.90;;;;;;5051864;28;20049;-71
2023/11/05 09:54:07;;;;;;;2.63;1.70;;;12.60;99.90;;;;;;5070809;28;20051;-70
2023/11/05 09:56:53;;;;;;;3.17;1.80;;;12.60;99.90;;;;;;5070722;28;20041;-72
2023/11/05 09:59:45;;;;;;;2.45;1.75;;;12.60;99.90;;;;;;5051854;28;20041;-71
2023/11/05 10:02:56;;;;;;;3.30;1.77;;;12.60;99.90;;;;;;5052195;28;20072;-69
2023/11/05 10:05:43;;;;;;;3.80;1.75;;;12.60;99.90;;;;;;5051376;28;20055;-70
2023/11/05 10:08:33;;;;;;;4.05;2.00;;;12.60;99.90;;;;;;5054554;28;20048;-69
2023/11/05 10:11:19;;;;;;;4.07;1.60;;;12.60;99.90;;;;;;5051187;28;20057;-70
2023/11/05 10:14:05;;;;;;;2.72;1.65;;;12.60;99.90;;;;;;5062434;28;20076;-70
2023/11/05 10:16:54;;;;;;;2.53;1.83;;;12.60;99.90;;;;;;5068357;28;20119;-70
2023/11/05 10:19:40;;;;;;;4.15;2.13;;;12.60;99.90;;;;;;5038454;28;20037;-70
2023/11/05 10:22:27;;;;;;;3.80;1.60;;;12.60;99.90;;;;;;5075984;28;20047;-70
2023/11/05 10:25:32;;;;;;;3.42;1.92;;;12.60;99.90;;;;;;5061318;28;20056;-70
2023/11/05 10:28:22;;;;;;;4.00;1.50;;;12.60;99.90;;;;;;5071016;28;20060;-70
2023/11/05 10:31:10;;;;;;;3.63;1.95;;;12.70;99.90;;;;;;5070853;28;20646;-69
2023/11/05 10:33:58;;;;;;;2.42;1.70;;;12.70;99.90;;;;;;5071928;28;20048;-69
2023/11/05 10:36:44;;;;;;;2.65;1.70;;;12.80;99.90;;;;;;5072098;28;20041;-69
2023/11/05 10:39:31;;;;;;;4.03;1.85;;;12.80;99.90;;;;;;5060606;28;20127;-69
2023/11/05 10:42:18;;;;;;;4.00;2.30;;;12.80;99.90;;;;;;5058246;28;20112;-70
2023/11/05 10:45:06;;;;;;;3.45;1.70;;;12.90;99.90;;;;;;5084475;28;20465;-70
2023/11/05 10:47:53;;;;;;;2.75;1.70;;;12.90;99.90;;;;;;5069926;28;20032;-71
2023/11/05 10:50:39;;;;;;;2.25;1.80;;;12.90;99.90;;;;;;5056780;28;20049;-71
2023/11/05 10:53:26;;;;;;;2.22;1.67;;;13.00;99.90;;;;;;5050649;28;20471;-70
2023/11/05 10:56:36;;;;;;;3.70;1.90;;;13.10;99.90;;;;;;5064528;28;20075;-70
2023/11/05 10:59:39;;;;;;;3.03;1.75;;;13.10;99.90;;;;;;5086335;28;20044;-70
2023/11/05 11:02:37;;;;;;;2.50;1.48;;;13.20;99.90;;;;;;5065840;28;20044;-71
2023/11/05 11:05:46;;;;;;;3.63;1.83;;;13.20;99.90;;;;;;5052306;28;20476;-71
2023/11/05 11:08:34;;;;;;;3.17;1.70;;;13.30;99.90;;;;;;5071663;28;20123;-77
2023/11/05 11:11:20;;;;;;;2.42;1.75;;;13.30;99.90;;;;;;5062622;28;20049;-68
2023/11/05 11:14:06;;;;;;;2.72;1.73;;;13.30;99.90;;;;;;5050681;28;20036;-72
2023/11/05 11:16:53;;;;;;;2.78;1.70;;;13.40;99.90;;;;;;5050317;28;20029;-72
2023/11/05 11:19:41;;;;;;;2.47;1.70;;;13.40;99.90;;;;;;5055428;28;20041;-72
2023/11/05 11:22:53;;;;;;;3.30;1.88;;;13.50;99.90;;;;;;5064186;28;20033;-70
2023/11/05 11:26:01;;;;;;;3.53;1.67;;;13.50;99.90;;;;;;5049963;28;20509;-70
2023/11/05 11:28:57;;;;;;;4.95;1.67;;;13.60;99.90;;;;;;5050836;28;20063;-70
2023/11/05 11:31:44;;;;;;;2.17;1.42;;;13.60;99.90;;;;;;5054084;28;20090;-71
2023/11/05 11:34:31;;;;;;;2.42;1.58;;;13.60;99.90;;;;;;5050800;28;20044;-70
2023/11/05 11:37:17;;;;;;;2.75;1.52;;;13.70;99.90;;;;;;5049485;28;20041;-71
2023/11/05 11:40:13;;;;;;;3.95;1.83;;;13.80;99.90;;;;;;5050270;28;20041;-72
2023/11/05 11:42:59;;;;;;;2.35;1.40;;;13.90;99.90;;;;;;5052628;28;20103;-72
2023/11/05 11:45:46;;;;;;;5.60;1.50;;;13.90;99.90;;;;;;5070969;28;20048;-64
2023/11/05 11:48:32;;;;;;;4.50;1.55;;;13.90;99.90;;;;;;5055540;28;20499;-64
2023/11/05 11:51:19;;;;;;;2.40;1.58;;;13.90;99.90;;;;;;5056650;28;20044;-66
2023/11/05 11:54:06;;;;;;;4.30;1.52;;;13.90;99.90;;;;;;5063523;28;20036;-65
2023/11/05 11:56:52;;;;;;;3.85;2.03;;;14.00;99.90;;;;;;5053769;28;20048;-65
2023/11/05 11:59:39;;;;;;;2.13;1.30;;;14.00;99.90;;;;;;5063403;28;20086;-64
2023/11/05 12:02:25;;;;;;;2.50;1.35;;;14.00;99.90;;;;;;5051267;28;20040;-65
2023/11/05 12:05:12;;;;;;;4.88;2.00;;;14.00;99.90;;;;;;5061153;28;20058;-65
2023/11/05 12:07:58;;;;;;;3.15;1.83;;;14.10;99.90;;;;;;5068680;28;20115;-65
2023/11/05 12:10:45;;;;;;;4.20;1.67;;;14.10;99.90;;;;;;5066701;28;20087;-65
2023/11/05 12:13:31;;;;;;;4.25;2.17;;;14.20;99.90;;;;;;5048462;28;20645;-65
2023/11/05 12:16:18;;;;;;;2.70;1.30;;;14.20;99.90;;;;;;5065791;28;20131;-65
2023/11/05 12:19:05;;;;;;;6.78;1.80;;;14.30;99.90;;;;;;5053217;28;20037;-65
2023/11/05 12:21:52;;;;;;;2.75;1.55;;;14.30;99.90;;;;;;5053654;28;20045;-66
2023/11/05 12:24:38;;;;;;;2.20;1.48;;;14.30;99.90;;;;;;5071401;28;20052;-65
2023/11/05 12:27:24;;;;;;;2.33;1.30;;;14.30;99.90;;;;;;5058378;28;20513;-66
2023/11/05 12:30:10;;;;;;;3.78;1.35;;;14.30;99.90;;;;;;5063740;28;20496;-66
2023/11/05 12:32:56;;;;;;;2.85;1.52;;;14.30;99.90;;;;;;5055012;28;20517;-65
2023/11/05 12:35:42;;;;;;;3.33;1.50;;;14.40;99.90;;;;;;5069680;28;20489;-65
2023/11/05 12:38:28;;;;;;;3.10;1.88;;;14.40;99.90;;;;;;5064752;28;20048;-66
2023/11/05 12:41:14;;;;;;;2.05;1.23;;;14.40;99.90;;;;;;5049672;28;20112;-65
2023/11/05 12:44:00;;;;;;;3.45;1.40;;;14.40;99.90;;;;;;5052498;28;20059;-65
2023/11/05 12:46:48;;;;;;;4.38;1.55;;;14.50;99.90;;;;;;5061992;28;20087;-66
2023/11/05 12:49:34;;;;;;;5.70;1.90;;;14.50;99.90;;;;;;5059701;28;20128;-64
2023/11/05 12:52:20;;;;;;;2.03;1.17;;;14.50;99.90;;;;;;5068470;28;20037;-65
2023/11/05 12:55:06;;;;;;;2.78;1.40;;;14.60;99.90;;;;;;5064159;28;20052;-65
2023/11/05 12:57:52;;;;;;;3.90;1.50;;;14.60;99.90;;;;;;5069032;28;20033;-65
2023/11/05 13:00:38;;;;;;;6.07;2.00;;;14.60;99.90;;;;;;5049716;28;20037;-65
2023/11/05 13:03:24;;;;;;;4.28;1.90;;;14.60;99.90;;;;;;5062341;28;20441;-65
2023/11/05 13:06:10;;;;;;;3.00;1.27;;;14.60;99.90;;;;;;5063556;28;20040;-65
2023/11/05 13:08:56;;;;;;;3.47;1.40;;;14.60;99.90;;;;;;5048915;28;20045;-65
2023/11/05 13:11:43;;;;;;;3.10;1.20;;;14.60;99.90;;;;;;5047149;28;20040;-65
2023/11/05 13:14:29;;;;;;;3.47;1.50;;;14.70;99.90;;;;;;5061527;28;20028;-65
2023/11/05 13:17:15;;;;;;;2.97;1.60;;;14.70;99.90;;;;;;5066433;28;20037;-65
2023/11/05 13:20:01;;;;;;;3.05;1.45;;;14.70;99.90;;;;;;5065500;28;20048;-65
2023/11/05 13:22:48;;;;;;;2.63;1.13;;;14.80;99.90;;;;;;5048153;28;20526;-66
2023/11/05 13:25:34;;;;;;;2.45;1.40;;;14.80;99.90;;;;;;5064124;28;20132;-65
2023/11/05 13:28:20;;;;;;;5.45;1.73;;;14.90;99.90;;;;;;5060019;28;20530;-65
2023/11/05 13:31:06;;;;;;;3.70;1.85;;;14.90;99.90;;;;;;5069332;28;20036;-65
2023/11/05 13:33:55;;;;;;;2.83;1.40;;;15.00;99.90;;;;;;5065978;28;20032;-65
2023/11/05 13:36:43;;;;;;;3.80;1.90;;;14.90;99.90;;;;;;5052011;28;20057;-65
2023/11/05 13:39:29;;;;;;;3.60;1.67;;;15.00;99.90;;;;;;5048390;28;20043;-66
2023/11/05 13:42:15;;;;;;;2.17;1.45;;;15.00;99.90;;;;;;5048550;28;20041;-68
2023/11/05 13:45:01;;;;;;;2.53;1.48;;;15.00;99.90;;;;;;5052685;28;20131;-65
2023/11/05 13:47:47;;;;;;;3.95;1.40;;;15.00;99.90;;;;;;5063634;28;20115;-65
2023/11/05 13:50:33;;;;;;;2.38;1.25;;;15.00;99.90;;;;;;5066723;28;20044;-65
2023/11/05 13:53:19;;;;;;;3.47;1.45;;;15.00;99.90;;;;;;5052523;28;20029;-65
2023/11/05 13:56:05;;;;;;;3.13;1.60;;;15.00;99.90;;;;;;5065704;28;20025;-65
2023/11/05 13:58:51;;;;;;;5.20;2.47;;;15.00;99.90;;;;;;5064685;28;20497;-66
2023/11/05 14:01:37;;;;;;;3.30;1.92;;;15.00;99.90;;;;;;5054676;28;20048;-65
2023/11/05 14:04:23;;;;;;;4.15;1.95;;;15.00;99.90;;;;;;5072131;28;20083;-65
2023/11/05 14:07:11;;;;;;;3.53;1.98;;;14.90;99.90;;;;;;5060206;28;20067;-65
2023/11/05 14:09:57;;;;;;;3.78;2.08;;;14.90;99.90;;;;;;5067153;28;20052;-65
2023/11/05 14:12:42;;;;;;;4.63;2.08;;;14.90;99.90;;;;;;5068987;28;20169;-65
2023/11/05 14:15:28;;;;;;;3.33;2.10;;;14.90;99.90;;;;;;5057005;28;20053;-65
2023/11/05 14:18:14;;;;;;;4.80;1.95;;;14.90;99.90;;;;;;5051668;28;20071;-66
2023/11/05 14:21:00;;;;;;;4.45;1.95;;;14.90;99.90;;;;;;5052200;28;20041;-72
2023/11/05 14:23:46;;;;;;;3.83;1.92;;;14.80;99.90;;;;;;5057800;28;20076;-72
2023/11/05 14:26:32;;;;;;;5.70;1.88;;;14.80;99.90;;;;;;5056897;28;20048;-76
2023/11/05 14:29:19;;;;;;;5.38;2.28;;;14.80;99.90;;;;;;5057644;28;20044;-69
2023/11/05 14:32:06;;;;;;;4.43;1.73;;;14.80;99.90;;;;;;5061081;28;20512;-69
2023/11/05 14:34:51;;;;;;;2.90;1.75;;;14.80;99.90;;;;;;5059007;28;20117;-67
2023/11/05 14:37:38;;;;;;;4.93;1.67;;;14.80;99.90;;;;;;5059513;28;20044;-68
2023/11/05 14:40:24;;;;;;;3.17;1.75;;;14.80;99.90;;;;;;5058285;28;20037;-68
2023/11/05 14:43:10;;;;;;;6.03;1.77;;;14.80;99.90;;;;;;5055739;28;20040;-68
2023/11/05 14:45:56;;;;;;;2.65;1.35;;;14.80;99.90;;;;;;5069368;28;20417;-68
2023/11/05 14:48:42;;;;;;;2.75;1.80;;;14.80;99.90;;;;;;5058456;28;20047;-69
2023/11/05 14:51:28;;;;;;;4.38;1.85;;;14.80;99.90;;;;;;5065990;28;20047;-69
2023/11/05 14:54:14;;;;;;;5.35;2.10;;;14.70;99.90;;;;;;5051424;28;20041;-69
2023/11/05 14:57:00;;;;;;;5.90;2.03;;;14.70;99.90;;;;;;5066320;28;20045;-69
2023/11/05 14:59:46;;;;;;;4.68;2.22;;;14.70;99.90;;;;;;5053457;28;20049;-69
2023/11/05 15:02:32;;;;;;;3.22;1.90;;;14.70;99.90;;;;;;5064780;28;20109;-69
2023/11/05 15:05:19;;;;;;;2.85;1.88;;;14.60;99.90;;;;;;5066625;28;20048;-69
2023/11/05 15:08:06;;;;;;;4.10;2.05;;;14.60;99.90;;;;;;5066902;28;20500;-70
2023/11/05 15:10:52;;;;;;;3.50;1.80;;;14.60;99.90;;;;;;5052334;28;20052;-69
2023/11/05 15:13:38;;;;;;;2.92;1.35;;;14.50;99.90;;;;;;5069833;28;20036;-68
2023/11/05 15:16:24;;;;;;;2.15;1.35;;;14.50;99.90;;;;;;5054470;28;20043;-70
2023/11/05 15:19:10;;;;;;;5.15;1.80;;;14.50;99.90;;;;;;5068758;28;20040;-71
2023/11/05 15:21:56;;;;;;;3.00;1.70;;;14.40;99.90;;;;;;5060062;28;20044;-71
2023/11/05 15:24:42;;;;;;;3.95;1.92;;;14.40;99.90;;;;;;5065786;28;20493;-70
2023/11/05 15:27:28;;;;;;;2.33;1.50;;;14.30;99.90;;;;;;5062473;28;20483;-70
2023/11/05 15:30:14;;;;;;;4.63;2.22;;;14.30;99.90;;;;;;5066577;28;20118;-71
2023/11/05 15:33:03;;;;;;;3.72;1.80;;;14.30;99.90;;;;;;5070410;28;20242;-69
2023/11/05 15:35:49;;;;;;;3.10;1.90;;;14.20;99.90;;;;;;5064125;28;20041;-70
2023/11/05 15:38:38;;;;;;;4.53;2.17;;;14.20;99.90;;;;;;5067752;28;20045;-68
2023/11/05 15:41:24;;;;;;;5.30;2.22;;;14.20;99.90;;;;;;5069805;28;20039;-72
2023/11/05 15:44:10;;;;;;;5.43;2.20;;;14.20;99.90;;;;;;5049180;28;20052;-73
2023/11/05 15:46:57;;;;;;;4.57;2.08;;;14.10;99.90;;;;;;5077458;28;20043;-73
2023/11/05 15:49:44;;;;;;;2.63;1.55;;;14.00;99.90;;;;;;5063268;28;20045;-69
2023/11/05 15:52:30;;;;;;;3.47;1.80;;;14.00;99.90;;;;;;5052118;28;20116;-71
2023/11/05 15:55:16;;;;;;;6.20;3.00;;;13.90;99.90;;;;;;5058919;28;20048;-69
2023/11/05 15:58:03;;;;;;;4.60;2.08;;;13.90;99.90;;;;;;5059763;28;20032;-71
2023/11/05 16:00:49;;;;;;;4.72;2.35;;;13.90;99.90;;;;;;5050220;28;20041;-71
2023/11/05 16:03:36;;;;;;;3.88;2.20;;;13.80;99.90;;;;;;5053664;28;20036;-69
2023/11/05 16:06:22;;;;;;;5.05;2.72;;;13.80;99.90;;;;;;5056120;28;20131;-70
2023/11/05 16:09:08;;;;;;;4.72;2.40;;;13.80;99.90;;;;;;5063321;28;20075;-73
2023/11/05 16:11:56;;;;;;;3.88;2.17;;;13.70;99.90;;;;;;5072013;28;20758;-70
2023/11/05 16:14:42;;;;;;;3.47;2.30;;;13.60;99.90;;;;;;5051531;28;20036;-70
2023/11/05 16:17:28;;;;;;;4.60;2.17;;;13.60;99.90;;;;;;5066806;28;20043;-70
2023/11/05 16:20:14;;;;;;;4.40;2.60;;;13.60;99.90;;;;;;5059670;28;20052;-70
2023/11/05 16:23:01;;;;;;;3.85;1.90;;;13.60;99.90;;;;;;5062761;28;20126;-70
2023/11/05 16:25:47;;;;;;;3.65;2.17;;;13.50;99.90;;;;;;5049928;28;20099;-70
2023/11/05 16:28:33;;;;;;;4.15;2.33;;;13.50;99.90;;;;;;5056211;28;20037;-68
2023/11/05 16:31:27;;;;;;;4.03;1.90;;;13.50;99.90;;;;;;5060127;28;20037;-69
2023/11/05 16:34:14;;;;;;;3.38;2.08;;;13.50;99.90;;;;;;5067143;28;20571;-69
2023/11/05 16:37:01;;;;;;;3.70;2.10;;;13.50;99.90;;;;;;5053280;28;20200;-69
2023/11/05 16:39:47;;;;;;;4.78;1.88;;;13.50;99.90;;;;;;5048106;28;20041;-69
2023/11/05 16:42:34;;;;;;;3.10;1.80;;;13.50;99.90;;;;;;5055421;28;20091;-69
2023/11/05 16:45:20;;;;;;;4.40;2.40;;;13.50;99.90;;;;;;5059367;28;20126;-69
2023/11/05 16:48:07;;;;;;;2.88;1.63;;;13.50;99.90;;;;;;5057247;28;20036;-69
2023/11/05 16:50:53;;;;;;;4.55;2.40;;;13.60;99.90;;;;;;5068920;28;20083;-69
2023/11/05 16:53:40;;;;;;;3.35;2.15;;;13.60;99.90;;;;;;5052547;28;20052;-69
2023/11/05 16:56:25;;;;;;;2.28;1.80;;;13.60;99.90;;;;;;5061970;28;20040;-71
2023/11/05 16:59:12;;;;;;;4.72;2.47;;;13.60;99.90;;;;;;5051280;28;20124;-69
2023/11/05 17:01:58;;;;;;;6.65;2.88;;;13.60;99.90;;;;;;5060807;28;20053;-69
2023/11/05 17:04:48;;;;;;;4.07;2.42;;;13.60;99.90;;;;;;5051294;28;22290;-69
2023/11/05 17:07:34;;;;;;;3.97;2.33;;;13.70;99.90;;;;;;5055968;28;20033;-69
2023/11/05 17:10:20;;;;;;;6.60;2.85;;;13.70;99.90;;;;;;5062725;28;20498;-69
2023/11/05 17:13:07;;;;;;;4.68;2.15;;;13.70;99.90;;;;;;5056102;28;20041;-68
2023/11/05 17:15:53;;;;;;;4.00;2.10;;;13.70;99.90;;;;;;5063324;28;20040;-70
2023/11/05 17:18:39;;;;;;;6.95;2.78;;;13.70;99.90;;;;;;5065944;28;20052;-69
2023/11/05 17:21:25;;;;;;;4.43;2.30;;;13.70;99.90;;;;;;5056758;28;20500;-69
2023/11/05 17:24:12;;;;;;;4.40;2.25;;;13.70;99.90;;;;;;5070444;28;20052;-69
2023/11/05 17:26:58;;;;;;;3.50;2.13;;;13.70;99.90;;;;;;5069410;28;20093;-70
2023/11/05 17:29:44;;;;;;;5.63;2.53;;;13.80;99.90;;;;;;5071166;28;20071;-70
2023/11/05 17:32:30;;;;;;;3.75;2.35;;;13.80;99.90;;;;;;5060595;28;20036;-70
2023/11/05 17:35:17;;;;;;;3.78;2.35;;;13.80;99.90;;;;;;5060166;28;20045;-70
2023/11/05 17:38:03;;;;;;;3.55;1.73;;;13.80;99.90;;;;;;5053680;28;20040;-70
2023/11/05 17:40:50;;;;;;;3.67;1.80;;;13.80;99.90;;;;;;5054433;28;20079;-70
2023/11/05 17:43:36;;;;;;;3.30;2.20;;;13.80;99.90;;;;;;5052844;28;20359;-69
2023/11/05 17:46:22;;;;;;;4.57;2.10;;;13.90;99.90;;;;;;5075806;28;20043;-69
2023/11/05 17:49:09;;;;;;;4.05;2.90;;;13.90;99.90;;;;;;5053061;28;20163;-70
2023/11/05 17:51:55;;;;;;;4.88;2.55;;;13.90;99.90;;;;;;5069837;28;20052;-70
2023/11/05 17:54:41;;;;;;;5.22;2.47;;;13.90;99.90;;;;;;5097131;28;20048;-72
2023/11/05 17:57:27;;;;;;;7.95;2.53;;;13.90;99.90;;;;;;5067962;28;20041;-71
2023/11/05 18:00:14;;;;;;;5.53;2.38;;;13.90;99.90;;;;;;5061007;28;20102;-70
2023/11/05 18:03:00;;;;;;;4.55;2.42;;;13.90;99.90;;;;;;5068414;28;20466;-70
2023/11/05 18:05:46;;;;;;;4.50;2.72;;;13.90;99.90;;;;;;5061691;28;20497;-69
2023/11/05 18:08:32;;;;;;;3.58;2.30;;;13.90;99.90;;;;;;5059523;28;20097;-70
2023/11/05 18:11:19;;;;;;;4.57;2.75;;;13.90;99.90;;;;;;5061529;28;20110;-69
2023/11/05 18:14:05;;;;;;;3.97;2.33;;;13.90;99.90;;;;;;5064000;28;20378;-69
2023/11/05 18:16:51;;;;;;;4.13;2.00;;;13.90;99.90;;;;;;5062958;28;20524;-69
2023/11/05 18:19:37;;;;;;;3.25;1.80;;;13.90;99.90;;;;;;5053252;28;20460;-69
2023/11/05 18:22:23;;;;;;;9.95;1.92;;;13.90;99.90;;;;;;5050751;28;20094;-68
2023/11/05 18:25:09;;;;;;;3.17;2.15;;;13.80;99.90;;;;;;5051281;28;20095;-68
2023/11/05 18:27:55;;;;;;;3.47;2.00;;;13.80;99.90;;;;;;5050655;28;20052;-69
2023/11/05 18:30:41;;;;;;;5.57;2.22;;;13.80;99.90;;;;;;5071391;28;20142;-69
2023/11/05 18:33:27;;;;;;;3.03;2.00;;;13.80;99.90;;;;;;5070590;28;20088;-68
2023/11/05 18:36:19;;;;;;;3.88;2.17;;;13.70;99.90;;;;;;5060812;28;20102;-67
2023/11/05 18:39:05;;;;;;;4.18;2.45;;;13.70;99.90;;;;;;5068037;28;20457;-67
2023/11/05 18:41:51;;;;;;;5.78;2.50;;;13.70;99.90;;;;;;5071615;28;20045;-68
2023/11/05 18:44:40;;;;;;;4.13;2.38;;;13.70;99.90;;;;;;5070358;28;20434;-68
2023/11/05 18:47:26;;;;;;;6.03;2.33;;;13.70;99.90;;;;;;5071760;28;20037;-68
2023/11/05 18:50:15;;;;;;;4.47;1.98;;;13.70;99.90;;;;;;5071345;28;20072;-68
2023/11/05 18:53:03;;;;;;;3.55;2.03;;;13.60;99.90;;;;;;5071265;28;20043;-68
2023/11/05 18:55:50;;;;;;;5.82;2.00;;;13.70;99.90;;;;;;5054529;28;20418;-68
2023/11/05 18:58:38;;;;;;;2.75;1.50;;;13.60;99.90;;;;;;5051349;28;20650;-68
2023/11/05 19:01:24;;;;;;;2.15;1.40;;;13.60;99.90;;;;;;5051412;28;20215;-67
2023/11/05 19:04:11;;;;;;;2.00;1.42;;;13.60;99.90;;;;;;5051075;28;20055;-69
2023/11/05 19:06:58;;;;;;;2.97;1.52;;;13.60;99.90;;;;;;5051713;28;20045;-68
2023/11/05 19:09:43;;;;;;;2.08;1.42;;;13.60;99.90;;;;;;5051035;28;20088;-66
2023/11/05 19:12:29;;;;;;;2.30;1.38;;;13.60;99.90;;;;;;5050838;28;20037;-67
2023/11/05 19:15:15;;;;;;;2.25;1.30;;;13.60;99.90;;;;;;5051557;28;20041;-68
2023/11/05 19:18:02;;;;;;;2.97;1.67;;;13.50;99.90;;;;;;5064287;28;20036;-67
2023/11/05 19:20:49;;;;;;;3.67;2.00;;;13.50;99.90;;;;;;5071714;28;20041;-67
2023/11/05 19:23:35;;;;;;;3.40;1.42;;;13.50;99.90;;;;;;5070590;28;20037;-67
2023/11/05 19:26:27;;;;;;;2.67;1.52;;;13.50;99.90;;;;;;5068873;28;20041;-68
2023/11/05 19:29:13;;;;;;;3.53;2.10;;;13.50;99.90;;;;;;5049700;28;20709;-67
2023/11/05 19:31:59;;;;;;;3.92;2.30;;;13.40;99.90;;;;;;5069883;28;20577;-66
2023/11/05 19:34:51;;;;;;;3.80;2.10;;;13.50;99.90;;;;;;5083176;28;20044;-67
2023/11/05 19:37:37;;;;;;;2.22;1.52;;;13.40;99.90;;;;;;5071120;28;20040;-67
2023/11/05 19:40:23;;;;;;;1.90;1.50;;;13.40;99.90;;;;;;5070437;28;20047;-67
2023/11/05 19:43:10;;;;;;;1.95;1.40;;;13.40;99.90;;;;;;5070498;28;20085;-66
2023/11/05 19:45:56;;;;;;;2.92;1.92;;;13.40;99.90;;;;;;5068960;28;20398;-66
2023/11/05 19:48:42;;;;;;;4.65;2.30;;;13.40;99.90;;;;;;5066010;28;20036;-67
2023/11/05 19:51:32;;;;;;;4.15;2.22;;;13.40;99.90;;;;;;5049198;28;20076;-66
2023/11/05 19:54:18;;;;;;;3.50;2.17;;;13.30;99.90;;;;;;5050251;28;20059;-67
2023/11/05 19:57:05;;;;;;;3.17;1.95;;;13.30;99.90;;;;;;5050244;28;20056;-66
2023/11/05 19:59:51;;;;;;;2.63;1.90;;;13.30;99.90;;;;;;5050048;28;20612;-66
2023/11/05 20:02:36;;;;;;;2.33;1.63;;;13.30;99.90;;;;;;5050124;28;20315;-66
2023/11/05 20:05:23;;;;;;;2.88;1.70;;;13.20;99.90;;;;;;5050544;28;20413;-65
2023/11/05 20:08:09;;;;;;;4.55;2.58;;;13.20;99.90;;;;;;5049687;28;20514;-65
2023/11/05 20:10:54;;;;;;;3.17;1.90;;;13.20;99.90;;;;;;5050906;28;20383;-66
2023/11/05 20:13:42;;;;;;;3.25;1.70;;;13.10;99.90;;;;;;5049384;28;20037;-66
2023/11/05 20:16:28;;;;;;;5.07;2.38;;;13.10;99.90;;;;;;5048990;28;20037;-66
2023/11/05 20:19:15;;;;;;;3.70;1.65;;;13.10;99.90;;;;;;5049767;28;20052;-67
2023/11/05 20:22:01;;;;;;;2.53;1.83;;;13.10;99.90;;;;;;5048032;28;20033;-66
2023/11/05 20:24:47;;;;;;;4.20;2.97;;;13.00;99.90;;;;;;5048631;28;20135;-66
2023/11/05 20:27:33;;;;;;;4.00;1.77;;;13.00;99.90;;;;;;5049601;28;20045;-66
2023/11/05 20:30:19;;;;;;;5.45;2.15;;;13.00;99.90;;;;;;5049723;28;20044;-66
2023/11/05 20:33:05;;;;;;;3.50;2.00;;;13.00;99.90;;;;;;5051919;28;20047;-66
2023/11/05 20:35:51;;;;;;;3.67;2.00;;;13.00;99.90;;;;;;5061499;28;20275;-66
2023/11/05 20:38:38;;;;;;;4.53;2.20;;;13.00;99.90;;;;;;5054722;28;20088;-65